Time;durP1;ratioP1;P1;durP2;ratioP2;P2;SDS_P1;SDS_P2;PMS_P1;PMS_P2;Temp;Humidity;BMP_temperature;BMP_pressure;BME280_temperature;BME280_humidity;BME280_pressure;Samples;Min_cycle;Max_cycle;Signal;HPM_P1;HPM_P2
2023/12/10 00:00:00;;;;;;;48.40;18.63;;;;;;;-141.97;100.00;46072.09;4975830;28;20269;-90
2023/12/10 00:02:26;;;;;;;40.37;17.70;;;;;;;-141.97;100.00;46125.88;4976178;28;20188;-89
2023/12/10 00:04:51;;;;;;;40.50;17.27;;;;;;;-141.97;100.00;46185.44;4983922;28;20447;-89
2023/12/10 00:07:17;;;;;;;42.13;18.57;;;;;;;-141.97;100.00;46123.97;4997414;28;20192;-88
2023/12/10 00:09:42;;;;;;;59.03;22.20;;;;;;;-141.97;100.00;46588.94;4997524;28;20188;-88
2023/12/10 00:12:08;;;;;;;60.50;22.27;;;;;;;-141.97;100.00;46223.88;4981442;28;20180;-87
2023/12/10 00:14:33;;;;;;;45.70;18.30;;;;;;;-141.97;100.00;46156.63;4975183;28;20544;-87
2023/12/10 00:16:58;;;;;;;37.47;16.77;;;;;;;-141.97;100.00;46700.38;4974533;28;20549;-86
2023/12/10 00:19:24;;;;;;;39.47;16.83;;;;;;;-141.97;100.00;46187.38;4973802;28;20648;-86
2023/12/10 00:21:49;;;;;;;35.30;15.70;;;;;;;-141.97;100.00;46296.88;4972798;28;20582;-87
2023/12/10 00:24:15;;;;;;;33.17;14.87;;;;;;;-141.97;100.00;46158.53;4970514;28;20768;-88
2023/12/10 00:26:40;;;;;;;34.60;14.57;;;;;;;-141.97;100.00;46437.13;4967834;28;20270;-88
2023/12/10 00:29:06;;;;;;;36.33;14.60;;;;;;;-141.97;100.00;46504.38;4973747;28;20184;-88
2023/12/10 00:31:31;;;;;;;33.03;13.83;;;;;;;-141.97;100.00;46746.50;4974034;28;20168;-88
2023/12/10 00:33:56;;;;;;;35.37;14.23;;;;;;;-141.97;100.00;46191.22;4972495;28;20172;-88
2023/12/10 00:36:22;;;;;;;33.77;14.40;;;;;;;-141.97;100.00;46638.91;4972067;28;20608;-88
2023/12/10 00:38:47;;;;;;;33.07;14.70;;;;;;;-141.97;100.00;46319.94;4979337;28;20202;-88
2023/12/10 00:41:14;;;;;;;31.33;13.73;;;;;;;-141.97;100.00;46648.50;4973827;28;20172;-85
2023/12/10 00:43:42;;;;;;;33.87;15.13;;;;;;;-141.97;100.00;46377.56;4971897;28;20203;-85
2023/12/10 00:46:09;;;;;;;34.57;15.20;;;;;;;-141.97;100.00;46262.28;4973852;28;20448;-87
2023/12/10 00:48:35;;;;;;;34.33;14.50;;;;;;;-141.97;100.00;46360.28;4973010;28;20428;-86
2023/12/10 00:51:00;;;;;;;36.23;14.93;;;;;;;-141.97;100.00;46027.91;4981752;28;20412;-87
2023/12/10 00:53:26;;;;;;;34.27;14.23;;;;;;;-141.97;100.00;46327.63;4987614;28;20404;-86
2023/12/10 00:55:52;;;;;;;35.07;15.20;;;;;;;-141.97;100.00;46047.13;4974153;28;20715;-87
2023/12/10 00:58:18;;;;;;;35.57;15.13;;;;;;;-141.97;100.00;46343.00;4973117;28;20165;-88
2023/12/10 01:00:43;;;;;;;35.00;14.77;;;;;;;-141.97;100.00;46181.59;4973497;28;20167;-88
2023/12/10 01:03:09;;;;;;;33.47;14.87;;;;;;;-141.97;100.00;46594.69;4975967;28;20199;-87
2023/12/10 01:05:34;;;;;;;32.17;15.03;;;;;;;-141.97;100.00;46492.88;4973472;28;20172;-87
2023/12/10 01:08:00;;;;;;;38.30;17.60;;;;;;;-141.97;100.00;46218.09;4972582;28;20621;-86
2023/12/10 01:10:25;;;;;;;34.30;15.80;;;;;;;-141.97;100.00;46156.63;4974360;28;20169;-86
2023/12/10 01:12:51;;;;;;;36.87;15.03;;;;;;;-141.97;100.00;46556.28;4974550;28;20194;-86
2023/12/10 01:15:17;;;;;;;49.30;19.60;;;;;;;-141.97;100.00;46323.78;4971609;28;20704;-85
2023/12/10 01:17:43;;;;;;;48.40;18.17;;;;;;;-141.97;100.00;46344.91;4972974;28;20176;-86
2023/12/10 01:20:09;;;;;;;38.17;16.07;;;;;;;-141.97;100.00;46323.78;4971411;28;20400;-88
2023/12/10 01:22:34;;;;;;;43.10;17.83;;;;;;;-141.97;100.00;46602.38;4974196;28;20195;-86
2023/12/10 01:25:01;;;;;;;41.70;16.50;;;;;;;-141.97;100.00;46348.75;4983696;28;20211;-86
2023/12/10 01:27:26;;;;;;;36.37;15.43;;;;;;;-141.97;100.00;46333.38;4997652;28;20164;-87
2023/12/10 01:29:52;;;;;;;42.90;16.77;;;;;;;-141.97;100.00;46304.56;5046930;23;20491;-86
2023/12/10 01:32:18;;;;;;;49.90;19.40;;;;;;;-141.97;100.00;46252.69;5053328;28;20184;-88
2023/12/10 01:34:43;;;;;;;41.83;16.23;;;;;;;-141.97;100.00;46260.38;5054197;28;20216;-86
2023/12/10 01:37:09;;;;;;;38.80;15.63;;;;;;;-141.97;100.00;46243.09;5051725;28;20228;-85
2023/12/10 01:39:34;;;;;;;35.33;15.93;;;;;;;-141.97;99.93;46337.22;5032218;28;20196;-86
2023/12/10 01:42:00;;;;;;;35.47;15.23;;;;;;;-141.97;99.60;46573.56;5032176;28;20205;-85
2023/12/10 01:44:26;;;;;;;35.30;15.03;;;;;;;-141.97;99.16;46362.22;5032762;28;20173;-86
2023/12/10 01:46:51;;;;;;;39.47;16.00;;;;;;;-141.97;97.17;46147.03;5030766;28;20508;-86
2023/12/10 01:49:17;;;;;;;35.27;15.43;;;;;;;-141.97;96.43;46231.56;5031294;28;20170;-86
2023/12/10 01:51:44;;;;;;;34.87;15.83;;;;;;;-141.97;96.06;46106.66;5031021;28;20166;-87
2023/12/10 01:54:21;;;;;;;36.10;15.97;;;;;;;-141.97;96.17;46362.22;5031154;28;20413;-87
2023/12/10 01:56:49;;;;;;;37.30;15.80;;;;;;;-141.97;95.85;46442.91;5030948;28;20416;-86
2023/12/10 01:59:15;;;;;;;35.50;15.43;;;;;;;-141.97;96.25;46189.28;5031187;28;20409;-86
2023/12/10 02:01:41;;;;;;;32.47;14.67;;;;;;;-141.97;96.13;46112.44;5030908;28;20401;-87
2023/12/10 02:04:06;;;;;;;35.83;14.53;;;;;;;-141.97;95.49;46264.22;5031203;28;20456;-87
2023/12/10 02:06:32;;;;;;;36.73;14.97;;;;;;;-141.97;94.88;46166.22;5030569;28;20190;-86
2023/12/10 02:08:58;;;;;;;32.53;14.50;;;;;;;-141.97;94.03;46660.03;5030819;28;20265;-86
2023/12/10 02:11:23;;;;;;;33.20;15.00;;;;;;;-141.97;94.35;46198.91;5030758;28;20416;-86
2023/12/10 02:13:49;;;;;;;32.70;14.70;;;;;;;-141.97;93.78;46610.06;5030783;28;20190;-86
2023/12/10 02:16:15;;;;;;;34.10;15.13;;;;;;;-141.97;93.46;46713.84;5030913;28;20171;-85
2023/12/10 02:18:41;;;;;;;36.83;15.17;;;;;;;-141.97;93.46;46227.72;5030939;28;20174;-87
2023/12/10 02:21:07;;;;;;;35.10;14.93;;;;;;;-141.97;93.55;46231.56;5031275;28;20205;-86
2023/12/10 02:23:59;;;;;;;30.20;14.43;;;;;;;-141.97;94.21;46204.66;5030767;28;20229;-86
2023/12/10 02:26:25;;;;;;;33.43;14.20;;;;;;;-141.97;94.24;46708.06;5034584;28;20990;-85
2023/12/10 02:28:52;;;;;;;34.17;14.97;;;;;;;-141.97;94.27;46266.13;5034105;28;20468;-85
2023/12/10 02:31:19;;;;;;;33.03;14.27;;;;;;;-141.97;94.18;46327.63;5034820;28;20196;-86
2023/12/10 02:33:45;;;;;;;35.90;14.80;;;;;;;-141.97;93.73;46135.50;5034354;28;20496;-85
2023/12/10 02:36:12;;;;;;;36.60;14.73;;;;;;;-141.97;93.82;46047.13;5033259;28;20420;-85
2023/12/10 02:38:37;;;;;;;34.57;14.03;;;;;;;-141.97;94.34;46554.34;5034417;28;20795;-85
2023/12/10 02:41:03;;;;;;;31.23;13.60;;;;;;;-141.97;93.80;46312.25;5034542;28;20416;-87
2023/12/10 02:43:28;;;;;;;35.23;14.40;;;;;;;-141.97;94.43;46669.63;5034358;28;20621;-87
2023/12/10 02:45:54;;;;;;;37.90;15.43;;;;;;;-141.97;94.67;46650.44;5034540;28;20247;-86
2023/12/10 02:48:21;;;;;;;30.10;13.30;;;;;;;-141.97;94.25;46646.59;5032775;28;20174;-87
2023/12/10 02:50:48;;;;;;;33.70;13.87;;;;;;;-141.97;94.06;46158.53;5032829;28;20316;-87
2023/12/10 02:53:14;;;;;;;34.03;14.00;;;;;;;-141.97;93.97;46062.47;5034744;28;20492;-87
2023/12/10 02:55:40;;;;;;;35.07;14.73;;;;;;;-141.97;93.97;46398.72;5028971;28;20515;-87
2023/12/10 02:58:05;;;;;;;35.00;14.13;;;;;;;-141.97;93.73;46139.34;5032796;28;20563;-87
2023/12/10 03:00:31;;;;;;;31.60;14.00;;;;;;;-141.97;94.31;46133.56;5031928;28;20658;-87
2023/12/10 03:02:56;;;;;;;36.13;13.87;;;;;;;-141.97;93.93;46206.56;5033796;28;20198;-86
2023/12/10 03:05:22;;;;;;;34.33;14.63;;;;;;;-141.97;93.83;46218.09;5034123;28;20535;-87
2023/12/10 03:07:47;;;;;;;33.87;14.20;;;;;;;-141.97;93.54;46079.78;5035213;28;20185;-85
2023/12/10 03:10:13;;;;;;;35.50;15.00;;;;;;;-141.97;92.40;46170.06;5035838;28;20190;-85
2023/12/10 03:12:38;;;;;;;52.73;16.73;;;;;;;-141.97;92.44;46127.81;5034217;28;20277;-84
2023/12/10 03:15:04;;;;;;;64.53;19.27;;;;;;;-141.97;93.60;46400.63;5035508;28;20264;-85
2023/12/10 03:17:30;;;;;;;68.07;20.87;;;;;;;-141.97;94.91;46577.41;5034343;28;20166;-87
2023/12/10 03:19:55;;;;;;;108.07;26.47;;;;;;;-141.97;96.06;46262.28;5028721;28;20558;-85
2023/12/10 03:22:21;;;;;;;56.70;19.83;;;;;;;-141.97;97.27;46348.75;5034274;28;20262;-85
2023/12/10 03:24:46;;;;;;;38.80;15.23;;;;;;;-141.97;99.88;46277.66;5034207;28;20173;-84
2023/12/10 03:27:11;;;;;;;37.40;15.23;;;;;;;-141.97;100.00;46727.28;5034615;28;20166;-84
2023/12/10 03:29:37;;;;;;;37.77;15.47;;;;;;;-141.97;100.00;46170.06;5032617;28;20229;-84
2023/12/10 03:32:03;;;;;;;41.00;15.53;;;;;;;-141.97;100.00;46604.31;5035195;28;20562;-83
2023/12/10 03:34:28;;;;;;;39.80;16.30;;;;;;;-141.97;100.00;46585.09;5034706;28;20608;-84
2023/12/10 03:36:53;;;;;;;49.83;19.33;;;;;;;-141.97;100.00;46239.25;5033673;28;20174;-84
2023/12/10 03:39:19;;;;;;;63.10;24.03;;;;;;;-141.97;100.00;46715.75;5033800;28;20235;-85
2023/12/10 03:41:44;;;;;;;68.70;27.43;;;;;;;-141.97;100.00;46333.38;5034586;28;20174;-84
2023/12/10 03:44:10;;;;;;;78.20;33.63;;;;;;;-141.97;100.00;46066.31;5033804;28;20584;-84
2023/12/10 03:46:36;;;;;;;85.90;38.70;;;;;;;-141.97;100.00;46173.91;5031892;28;20181;-84
2023/12/10 03:49:02;;;;;;;66.43;27.10;;;;;;;-141.97;100.00;46456.34;5031743;28;20235;-84
2023/12/10 03:51:27;;;;;;;53.87;23.67;;;;;;;-141.97;100.00;46298.81;5033569;28;20178;-84
2023/12/10 03:53:53;;;;;;;50.13;23.07;;;;;;;-141.97;100.00;46573.56;5033926;28;20431;-84
2023/12/10 03:56:18;;;;;;;52.70;23.10;;;;;;;-141.97;100.00;46289.19;5033881;28;20190;-84
2023/12/10 03:58:44;;;;;;;77.73;31.37;;;;;;;-141.97;100.00;46325.69;5034163;28;20173;-83
2023/12/10 04:01:09;;;;;;;80.50;35.70;;;;;;;-141.97;100.00;46350.69;5033575;28;20181;-82
2023/12/10 04:03:34;;;;;;;75.67;33.43;;;;;;;-141.97;100.00;46208.50;5033551;28;20216;-82
2023/12/10 04:06:01;;;;;;;68.80;31.67;;;;;;;-141.97;100.00;46308.41;5033474;28;20174;-82
2023/12/10 04:08:26;;;;;;;60.60;27.57;;;;;;;-141.97;100.00;46600.47;5031999;28;20174;-82
2023/12/10 04:10:52;;;;;;;51.80;23.87;;;;;;;-141.97;100.00;46156.63;5033770;28;20876;-82
2023/12/10 04:13:17;;;;;;;52.63;25.10;;;;;;;-141.97;100.00;46343.00;5033640;28;20241;-85
2023/12/10 04:15:44;;;;;;;54.70;24.97;;;;;;;-141.97;100.00;46200.81;5033758;28;20170;-84
2023/12/10 04:18:10;;;;;;;47.80;20.40;;;;;;;-141.97;100.00;46316.09;5046848;28;20221;-84
2023/12/10 04:20:36;;;;;;;42.83;20.30;;;;;;;-141.97;100.00;46727.28;5047512;28;20416;-84
2023/12/10 04:23:02;;;;;;;51.50;22.23;;;;;;;-141.97;100.00;46323.78;5033240;28;20460;-84
2023/12/10 04:25:28;;;;;;;41.23;19.57;;;;;;;-141.97;100.00;46325.69;5032795;28;20217;-84
2023/12/10 04:27:54;;;;;;;45.57;19.97;;;;;;;-141.97;99.06;46304.56;5033594;28;20166;-84
2023/12/10 04:30:20;;;;;;;43.10;20.43;;;;;;;-141.97;96.08;46585.09;5032998;28;20723;-84
2023/12/10 04:32:46;;;;;;;42.73;19.07;;;;;;;-141.97;95.36;46277.66;5033171;28;20166;-84
2023/12/10 04:35:11;;;;;;;49.37;20.10;;;;;;;-141.97;95.16;46193.13;5033143;28;20252;-84
2023/12/10 04:37:37;;;;;;;51.33;21.03;;;;;;;-141.97;93.14;46354.53;5033355;28;20174;-83
2023/12/10 04:40:03;;;;;;;40.87;17.37;;;;;;;-141.97;92.30;46546.66;5032807;28;20181;-83
2023/12/10 04:42:28;;;;;;;48.63;19.97;;;;;;;-141.97;91.87;46310.31;5032542;28;20193;-83
2023/12/10 04:44:54;;;;;;;50.90;19.73;;;;;;;-141.97;91.21;46335.31;5032752;28;20553;-83
2023/12/10 04:47:19;;;;;;;44.93;18.10;;;;;;;-141.97;91.47;46258.44;5032680;28;20182;-83
2023/12/10 04:49:44;;;;;;;42.90;19.50;;;;;;;-141.97;91.78;46362.22;5032946;28;20252;-84
2023/12/10 04:52:10;;;;;;;46.03;19.30;;;;;;;-141.97;91.78;46437.13;5033209;28;20200;-84
2023/12/10 04:54:35;;;;;;;55.40;24.87;;;;;;;-141.97;91.19;46343.00;5033137;28;20167;-85
2023/12/10 04:57:01;;;;;;;46.47;20.20;;;;;;;-141.97;91.87;46302.66;5045955;28;20613;-83
2023/12/10 04:59:26;;;;;;;49.23;22.10;;;;;;;-141.97;94.02;46181.59;5044839;28;20201;-84
2023/12/10 05:01:52;;;;;;;65.70;28.43;;;;;;;-141.97;94.71;46375.66;5047194;28;20276;-85
2023/12/10 05:04:18;;;;;;;47.27;20.37;;;;;;;-141.97;95.59;46269.97;5034011;28;20276;-85
2023/12/10 05:06:43;;;;;;;50.67;21.53;;;;;;;-141.97;97.19;46304.56;5034656;28;20635;-83
2023/12/10 05:09:10;;;;;;;53.37;23.93;;;;;;;-141.97;98.76;46343.00;5033602;28;20425;-83
2023/12/10 05:11:36;;;;;;;58.67;25.27;;;;;;;-141.97;99.50;46354.53;5031165;28;20232;-84
2023/12/10 05:14:01;;;;;;;56.50;21.97;;;;;;;-141.97;100.00;46264.22;5031924;28;20743;-84
2023/12/10 05:16:27;;;;;;;48.30;20.03;;;;;;;-141.97;100.00;46481.34;5031612;28;20627;-84
2023/12/10 05:18:52;;;;;;;54.57;24.37;;;;;;;-141.97;100.00;46346.84;5031907;28;20294;-83
2023/12/10 05:21:18;;;;;;;52.83;23.63;;;;;;;-141.97;100.00;46335.31;5031875;28;20631;-84
2023/12/10 05:23:43;;;;;;;54.43;23.10;;;;;;;-141.97;100.00;46673.47;5031516;28;20201;-84
2023/12/10 05:26:08;;;;;;;49.93;22.00;;;;;;;-141.97;100.00;46154.69;5031284;28;20523;-84
2023/12/10 05:28:34;;;;;;;56.13;24.87;;;;;;;-141.97;100.00;46658.13;5031286;28;20166;-84
2023/12/10 05:30:59;;;;;;;66.90;26.93;;;;;;;-141.97;100.00;46343.00;5031937;28;20260;-84
2023/12/10 05:33:25;;;;;;;74.20;28.63;;;;;;;-141.97;100.00;46158.53;5031438;28;20665;-84
2023/12/10 05:35:50;;;;;;;75.87;29.73;;;;;;;-141.97;100.00;46335.31;5031208;28;20177;-83
2023/12/10 05:38:16;;;;;;;65.90;26.53;;;;;;;-141.97;100.00;46602.38;5031359;28;20166;-82
2023/12/10 05:40:41;;;;;;;100.37;36.50;;;;;;;-141.97;100.00;46266.13;5031272;28;20170;-83
2023/12/10 05:43:07;;;;;;;89.17;34.30;;;;;;;-141.97;100.00;46204.66;5031346;28;20201;-84
2023/12/10 05:45:32;;;;;;;64.90;27.40;;;;;;;-141.97;100.00;46341.06;5031194;28;20181;-83
2023/12/10 05:47:58;;;;;;;52.00;21.77;;;;;;;-141.97;100.00;46189.28;5030995;28;20623;-82
2023/12/10 05:50:23;;;;;;;49.97;20.83;;;;;;;-141.97;100.00;46598.53;5031315;28;20166;-82
2023/12/10 05:52:49;;;;;;;49.83;19.50;;;;;;;-141.97;100.00;46565.88;5032867;28;20170;-81
2023/12/10 05:55:14;;;;;;;52.73;20.57;;;;;;;-141.97;100.00;46337.22;5042311;28;20177;-83
2023/12/10 05:57:40;;;;;;;52.73;19.03;;;;;;;-141.97;100.00;46148.94;5054897;28;20189;-82
2023/12/10 06:00:06;;;;;;;51.90;18.60;;;;;;;-141.97;100.00;46312.25;5049680;28;20162;-81
2023/12/10 06:02:32;;;;;;;50.40;17.67;;;;;;;-141.97;100.00;46337.22;5054505;28;20224;-82
2023/12/10 06:04:58;;;;;;;55.40;19.43;;;;;;;-141.97;96.71;46100.91;5057218;28;20409;-83
2023/12/10 06:07:23;;;;;;;51.00;19.87;;;;;;;-141.97;94.74;46596.63;5057833;28;20435;-83
2023/12/10 06:09:49;;;;;;;45.57;17.63;;;;;;;-141.97;92.42;46304.56;5037943;28;20737;-81
2023/12/10 06:12:14;;;;;;;44.53;17.77;;;;;;;-141.97;92.47;46519.75;5034912;28;20631;-81
2023/12/10 06:14:40;;;;;;;47.70;18.90;;;;;;;-141.97;92.25;46089.38;5034679;28;20170;-81
2023/12/10 06:17:05;;;;;;;47.77;18.90;;;;;;;-141.97;91.86;46123.97;5034718;28;20166;-81
2023/12/10 06:19:31;;;;;;;53.17;18.97;;;;;;;-141.97;92.15;46708.06;5034418;28;20166;-82
2023/12/10 06:21:56;;;;;;;47.47;18.57;;;;;;;-141.97;92.40;46181.59;5034695;28;20170;-82
2023/12/10 06:24:21;;;;;;;47.43;17.97;;;;;;;-141.97;92.10;46164.31;5033038;28;20217;-82
2023/12/10 06:26:47;;;;;;;50.07;17.97;;;;;;;-141.97;91.37;46304.56;5033066;28;20248;-83
2023/12/10 06:29:12;;;;;;;57.17;19.93;;;;;;;-141.97;91.21;46704.22;5034296;28;20225;-82
2023/12/10 06:31:38;;;;;;;50.77;19.07;;;;;;;-141.97;90.55;46196.97;5035439;28;20170;-84
2023/12/10 06:34:03;;;;;;;49.80;17.23;;;;;;;-141.97;90.36;46166.22;5033619;28;20697;-82
2023/12/10 06:36:29;;;;;;;53.43;18.23;;;;;;;-141.97;89.29;46289.19;5034551;28;20655;-82
2023/12/10 06:38:54;;;;;;;68.77;24.40;;;;;;;-141.97;89.94;46635.06;5035968;28;20178;-81
2023/12/10 06:41:20;;;;;;;65.80;25.00;;;;;;;-141.97;91.01;46327.63;5034264;28;20236;-83
2023/12/10 06:43:46;;;;;;;67.73;24.40;;;;;;;-141.97;91.37;46058.63;5034167;28;20198;-82
2023/12/10 06:46:13;;;;;;;77.13;33.30;;;;;;;-141.97;91.40;46304.56;5034152;28;20158;-83
2023/12/10 06:48:38;;;;;;;64.30;23.60;;;;;;;-141.97;91.26;46275.75;5034052;28;20424;-83
2023/12/10 06:51:04;;;;;;;55.70;19.93;;;;;;;-141.97;91.34;46331.47;5034198;28;20435;-81
2023/12/10 06:53:31;;;;;;;53.53;18.83;;;;;;;-141.97;92.07;46588.94;5034181;28;20649;-82
2023/12/10 06:55:57;;;;;;;52.77;19.40;;;;;;;-141.97;92.09;46633.13;5034165;28;20165;-83
2023/12/10 06:58:23;;;;;;;57.70;20.27;;;;;;;-141.97;91.73;46123.97;5033818;28;20978;-82
2023/12/10 07:00:50;;;;;;;59.17;19.93;;;;;;;-141.97;92.36;46600.47;5033972;28;20409;-82
2023/12/10 07:03:15;;;;;;;64.03;21.60;;;;;;;-141.97;91.69;46688.84;5034428;28;20193;-84
2023/12/10 07:05:40;;;;;;;55.20;19.77;;;;;;;-141.97;91.58;46243.09;5032927;28;20475;-84
2023/12/10 07:08:06;;;;;;;64.33;22.57;;;;;;;-141.97;91.22;46139.34;5033606;28;20197;-82
2023/12/10 07:10:31;;;;;;;62.90;21.13;;;;;;;-141.97;90.72;46200.81;5033024;28;20558;-81
2023/12/10 07:12:58;;;;;;;89.63;34.37;;;;;;;-141.97;90.50;46544.75;5033543;28;20162;-81
2023/12/10 07:15:23;;;;;;;58.27;21.17;;;;;;;-141.97;90.81;46125.88;5033355;28;20289;-82
2023/12/10 07:17:49;;;;;;;56.70;21.27;;;;;;;-141.97;90.33;46565.88;5031770;28;20971;-81
2023/12/10 07:20:14;;;;;;;95.87;33.07;;;;;;;-141.97;89.33;46658.13;5033760;28;20181;-81
2023/12/10 07:22:41;;;;;;;77.20;28.43;;;;;;;-141.97;88.63;46613.91;5034059;28;20308;-83
2023/12/10 07:25:07;;;;;;;63.47;24.10;;;;;;;-141.97;88.42;46204.66;5034048;28;20158;-82
2023/12/10 07:27:32;;;;;;;58.20;23.17;;;;;;;-141.97;88.28;46316.09;5033770;28;20405;-83
2023/12/10 07:29:58;;;;;;;66.33;23.27;;;;;;;-141.97;87.10;46273.81;5033052;28;20220;-82
2023/12/10 07:32:24;;;;;;;66.73;26.43;;;;;;;-141.97;86.60;46298.81;5033184;28;20169;-82
2023/12/10 07:34:49;;;;;;;68.30;22.40;;;;;;;-141.97;85.94;46489.03;5033580;28;20178;-82
2023/12/10 07:37:15;;;;;;;69.33;22.10;;;;;;;-141.97;85.64;46129.72;5033088;28;20416;-82
2023/12/10 07:39:41;;;;;;;64.13;23.40;;;;;;;-141.97;85.64;46300.72;5031839;28;20178;-82
2023/12/10 07:42:06;;;;;;;70.43;24.27;;;;;;;-141.97;84.93;46277.66;5032753;28;20275;-82
2023/12/10 07:44:33;;;;;;;67.20;22.73;;;;;;;-141.97;85.22;46304.56;5034907;28;20202;-83
2023/12/10 07:46:58;;;;;;;77.47;25.73;;;;;;;-141.97;84.43;46619.69;5033555;28;20308;-82
2023/12/10 07:49:24;;;;;;;84.27;28.50;;;;;;;-141.97;84.78;46177.75;5034880;28;20437;-81
2023/12/10 07:51:49;;;;;;;81.07;27.27;;;;;;;-141.97;84.60;46302.66;5042392;28;20201;-82
2023/12/10 07:54:15;;;;;;;126.40;40.70;;;;;;;-141.97;84.00;46206.56;5046248;28;20197;-83
2023/12/10 07:56:40;;;;;;;80.53;28.47;;;;;;;-141.97;83.27;46489.03;5036985;28;20166;-82
2023/12/10 07:59:06;;;;;;;112.00;36.60;;;;;;;-141.97;82.82;46216.19;5037421;28;20210;-84
2023/12/10 08:01:31;;;;;;;70.57;24.90;;;;;;;-141.97;82.66;46667.72;5034443;28;20178;-82
2023/12/10 08:03:57;;;;;;;66.30;25.13;;;;;;;-141.97;82.94;46179.69;5033118;28;20210;-82
2023/12/10 08:06:22;;;;;;;70.57;27.20;;;;;;;-141.97;83.26;46398.72;5034190;28;20166;-82
2023/12/10 08:08:48;;;;;;;67.60;24.27;;;;;;;-141.97;82.58;46269.97;5033417;28;20552;-82
2023/12/10 08:11:13;;;;;;;66.20;25.07;;;;;;;-141.97;82.67;46208.50;5032868;28;20173;-82
2023/12/10 08:13:39;;;;;;;126.73;40.33;;;;;;;-141.97;82.17;46277.66;5032993;28;20174;-82
2023/12/10 08:16:05;;;;;;;103.93;34.33;;;;;;;-141.97;81.06;46431.38;5033043;28;20176;-82
2023/12/10 08:18:31;;;;;;;80.70;27.10;;;;;;;-141.97;80.62;46729.22;5033778;28;20566;-81
2023/12/10 08:20:56;;;;;;;73.17;25.43;;;;;;;-141.97;80.61;46291.13;5036215;28;20409;-81
2023/12/10 08:23:22;;;;;;;84.03;30.63;;;;;;;-141.97;80.35;46089.38;5031813;28;20636;-82
2023/12/10 08:25:47;;;;;;;68.97;25.63;;;;;;;-141.97;80.46;46279.59;5033256;28;20536;-82
2023/12/10 08:28:12;;;;;;;72.57;25.37;;;;;;;-141.97;79.89;46439.06;5032953;28;20177;-90
2023/12/10 08:30:38;;;;;;;70.17;24.93;;;;;;;-141.97;80.13;46546.66;5033356;28;20225;-86
2023/12/10 08:33:03;;;;;;;109.23;39.93;;;;;;;-141.97;80.39;46047.13;5032741;28;20161;-84
2023/12/10 08:35:29;;;;;;;140.20;41.43;;;;;;;-141.97;80.70;46074.00;5032442;28;20167;-82
2023/12/10 08:37:54;;;;;;;115.50;34.70;;;;;;;-141.97;80.35;46054.81;5031422;28;20167;-83
2023/12/10 08:40:20;;;;;;;239.30;63.27;;;;;;;-141.97;79.86;46439.06;5033473;28;20284;-87
2023/12/10 08:42:46;;;;;;;156.63;50.00;;;;;;;-141.97;80.86;46300.72;5031850;28;20247;-87
2023/12/10 08:45:12;;;;;;;252.37;66.30;;;;;;;-141.97;81.54;46189.28;5031712;28;20228;-86
2023/12/10 08:47:37;;;;;;;175.93;58.97;;;;;;;-141.97;81.58;46742.66;5048664;28;20412;-86
2023/12/10 08:50:03;;;;;;;185.60;82.03;;;;;;;-141.97;81.86;46323.78;5034372;28;20200;-86
2023/12/10 08:52:29;;;;;;;127.53;44.87;;;;;;;-141.97;81.63;46158.53;5031012;28;20208;-86
2023/12/10 08:54:55;;;;;;;94.10;37.57;;;;;;;-141.97;81.20;46135.50;5032870;28;20443;-86
2023/12/10 08:57:21;;;;;;;165.17;73.03;;;;;;;-141.97;82.16;46289.19;5033148;28;20621;-85
2023/12/10 08:59:47;;;;;;;143.47;53.87;;;;;;;-141.97;82.50;46254.59;5031502;28;20278;-87
2023/12/10 09:02:12;;;;;;;100.07;34.77;;;;;;;-141.97;81.94;46535.13;5031875;28;20448;-88
2023/12/10 09:04:38;;;;;;;78.23;27.73;;;;;;;-141.97;81.90;46195.06;5033242;28;20588;-86
2023/12/10 09:07:03;;;;;;;76.50;25.90;;;;;;;-141.97;81.34;46279.59;5032947;28;20171;-86
2023/12/10 09:09:29;;;;;;;113.90;36.77;;;;;;;-141.97;81.50;46734.97;5032854;28;20243;-87
2023/12/10 09:11:54;;;;;;;79.00;27.63;;;;;;;-141.97;80.70;46152.78;5032581;28;20189;-86
2023/12/10 09:14:21;;;;;;;85.87;32.37;;;;;;;-141.97;80.82;46604.31;5032953;28;20169;-82
2023/12/10 09:16:47;;;;;;;126.10;42.50;;;;;;;-141.97;80.39;46439.06;5033974;28;20198;-83
2023/12/10 09:19:14;;;;;;;84.97;29.33;;;;;;;-141.97;80.42;46204.66;5031489;28;20919;-84
2023/12/10 09:21:39;;;;;;;80.77;27.93;;;;;;;-141.97;80.24;46139.34;5031247;28;20423;-85
2023/12/10 09:24:05;;;;;;;91.33;32.27;;;;;;;-141.97;79.95;46300.72;5033030;28;20552;-84
2023/12/10 09:26:31;;;;;;;76.60;27.37;;;;;;;-141.97;80.09;46585.09;5033781;28;20254;-84
2023/12/10 09:28:57;;;;;;;75.27;28.10;;;;;;;-141.97;80.21;46225.78;5031880;28;21036;-85
2023/12/10 09:31:24;;;;;;;84.60;28.00;;;;;;;-141.97;80.19;46285.34;5032410;28;20177;-84
2023/12/10 09:33:49;;;;;;;77.37;27.47;;;;;;;-141.97;79.75;46642.75;5029701;28;20552;-84
2023/12/10 09:36:17;;;;;;;88.63;32.60;;;;;;;-141.97;79.67;46164.31;5031427;28;20413;-84
2023/12/10 09:38:43;;;;;;;80.63;29.43;;;;;;;-141.97;79.72;46177.75;5031834;28;20174;-84
2023/12/10 09:41:09;;;;;;;80.10;29.20;;;;;;;-141.97;79.52;46158.53;5031172;28;20920;-85
2023/12/10 09:43:34;;;;;;;79.13;27.37;;;;;;;-141.97;79.40;46196.97;5031590;28;20468;-84
2023/12/10 09:46:03;;;;;;;75.50;27.03;;;;;;;-141.97;79.35;46604.31;5032102;28;20196;-85
2023/12/10 09:48:30;;;;;;;76.63;27.17;;;;;;;-141.97;78.89;46277.66;5033282;28;20396;-84
2023/12/10 09:50:56;;;;;;;85.43;29.33;;;;;;;-141.97;78.35;46175.84;5030717;28;20450;-83
2023/12/10 09:53:21;;;;;;;87.37;28.90;;;;;;;-141.97;79.65;46145.09;5030811;28;20921;-85
2023/12/10 09:55:48;;;;;;;74.70;25.80;;;;;;;-141.97;81.95;46195.06;5031792;28;20225;-84
2023/12/10 09:58:13;;;;;;;83.83;28.87;;;;;;;-141.97;82.09;46646.59;5031797;28;20205;-83
2023/12/10 10:00:40;;;;;;;95.30;36.23;;;;;;;-141.97;80.98;46289.19;5031363;28;20457;-84
2023/12/10 10:03:05;;;;;;;91.73;33.47;;;;;;;-141.97;80.49;46243.09;5031599;28;20234;-84
2023/12/10 10:05:33;;;;;;;70.80;26.47;;;;;;;-141.97;78.97;46283.44;5030216;28;20467;-84
2023/12/10 10:07:58;;;;;;;96.70;35.73;;;;;;;-141.97;78.71;46335.31;5031774;28;20182;-83
2023/12/10 10:10:25;;;;;;;107.00;37.90;;;;;;;-141.97;78.42;46481.34;5031550;28;20408;-84
2023/12/10 10:12:53;;;;;;;115.70;42.43;;;;;;;-141.97;77.33;46277.66;5031937;28;20201;-84
2023/12/10 10:15:30;;;;;;;83.13;31.83;;;;;;;-141.97;78.65;46131.66;5033087;28;20500;-86
2023/12/10 10:17:56;;;;;;;71.27;24.90;;;;;;;-141.97;78.97;46277.66;5050378;28;20451;-85
2023/12/10 10:20:23;;;;;;;100.63;32.13;;;;;;;-141.97;79.27;46608.16;5051306;28;20496;-84
2023/12/10 10:22:49;;;;;;;84.90;29.63;;;;;;;-141.97;79.25;46690.78;5047759;28;20841;-85
2023/12/10 10:25:14;;;;;;;85.57;29.67;;;;;;;-141.97;79.43;46185.44;5034389;28;20457;-84
2023/12/10 10:27:40;;;;;;;83.70;30.90;;;;;;;-141.97;79.17;46431.38;5034348;28;20170;-84
2023/12/10 10:30:06;;;;;;;88.87;31.33;;;;;;;-141.97;78.62;46231.56;5033943;28;20303;-85
2023/12/10 10:32:32;;;;;;;132.83;43.27;;;;;;;-141.97;79.14;46492.88;5033228;28;20187;-84
2023/12/10 10:35:04;;;;;;;95.43;30.07;;;;;;;-141.97;79.12;46592.78;5034201;28;20421;-85
2023/12/10 10:37:30;;;;;;;77.93;26.23;;;;;;;-141.97;78.68;46283.44;5033739;28;20497;-84
2023/12/10 10:39:56;;;;;;;76.67;27.73;;;;;;;-141.97;79.78;46120.13;5033978;28;20917;-84
2023/12/10 10:42:22;;;;;;;85.63;28.83;;;;;;;-141.97;79.55;46158.53;5034525;28;20191;-85
2023/12/10 10:44:47;;;;;;;76.17;25.70;;;;;;;-141.97;79.55;46417.94;5052113;28;20421;-84
2023/12/10 10:47:15;;;;;;;83.10;27.90;;;;;;;-141.97;78.74;46223.88;5058517;28;20217;-84
2023/12/10 10:49:57;;;;;;;93.30;33.80;;;;;;;-141.97;79.71;46239.25;5049575;28;20246;-86
2023/12/10 10:52:29;;;;;;;157.50;61.43;;;;;;;-141.97;80.86;46293.03;5047079;28;20412;-85